Saint-Lin, Canada
Current Conditions -  °F | °C
As of 7:00 PM on Saturday 22 Nov 2014 (Local Time) from CYMX Reporting Station
Overcast Overcast  
Wind Chill: 26°   Ceiling: 1600
Heat Index: 32°   Visibility: 20mi
Dew Point: 27°   Wind: 7mph
Humidity: 80%   Direction: 220°SW
Pressure: 29.88"   Gusts: NA
Location:  45.85°N, 73.77°W
Report Text: CYMX 230000Z 22006KT 20SM OVC016 M00/M03 A2988 RMK SC8 SLP123
Loading
Personal Weather Stations






























Interactive Weather Map New forecast layout! Learn more

10-Day Weather Forecast

Advertisements
Track Severe Weather on mobile